Aérodrome :
LOGIN :

S'inscrire | Disclaimer

   EN    FR    IT 

 










Légende :    VFR   VFR Marginal   IFR   IFR Intensif   IFR Très Intensif
Visi : 
Plafond : 
>= 8 km
>= 3000ft
5 à 8 km
1000 à 3000 ft
1500m à 5 km
500 à 1000 ft
800 à 1500m
200 à 500 ft
< 800m
< 200 ft
Symboles :   Orages  Brouillard  Fortes neiges  Fortes précipitations  Vent > 20 kt
SIGMETs :   Divers  Orages  Givrage  Turbulence  Onde Orograph.  Cendres Volcan.







- Altitude de l'aérodrome : 25 ft
- Code IATA : QCY


EGXC - RAF Coningsby

DERNIER METAR :
  • 151150Z 26011KT 9999 BKN024 19/14 Q1023 NOSIG RMK WHT WHT

METARs EXPIRÉS :
  • 151120Z 29011KT 9999 BKN024 19/14 Q1023 NOSIG RMK WHT WHT
  • 151050Z 28011KT 9999 SCT022 BKN030 19/14 Q1023 NOSIG RMK WHT WHT
  • 151020Z 28013KT 9999 SCT022 BKN025 19/13 Q1023 NOSIG RMK WHT WHT
  • 150950Z 27014KT 9999 FEW022 SCT025 19/14 Q1023 BECMG BKN020 RMK BLU BECMG WHT

TAF TAF EGXC
Valide du 15 à 12h jusqu'au 16 à 06h UTC


151034Z 1512/1606 26010KT 9999 BKN022
PROB40
TEMPO 1512/1516 BKN025
TEMPO 1516/1606 BKN010
PROB40
TEMPO 1519/1606 3000 -RADZ BKN004
PROB30
TEMPO 1520/1603 2000 RADZ BKN002
Pas de NOTAMs connus pour ce terrain.



MET'MAP, la Météo Aéronautique d'un coup d'oeil ! - Copyright ORBIFLY Décembre 2007 - Disclaimer

ORBIFLY MET'MAP TEAM :

Programmation & Développement : Alexandra Zaïnal
Conception & Développement : Baudouin d'Aumeries
Co-Programmation & Développement : Marc-Olivier Méhu
Soutien technique & logistique : Manuel Goepfert

Contact : metmap@orbifly.com




SOURCES & CREDITS :

   NOAA